createdAt,value
2022-11-23T00:01:25.865Z,4.10
2022-11-23T00:03:55.840Z,2.88
2022-11-23T00:06:24.676Z,5.05
2022-11-23T00:08:53.313Z,2.97
2022-11-23T00:11:21.841Z,5.60
2022-11-23T00:13:49.409Z,4.10
2022-11-23T00:16:19.348Z,5.32
2022-11-23T00:18:47.266Z,3.72
2022-11-23T00:21:17.405Z,4.85
2022-11-23T00:23:45.743Z,3.90
2022-11-23T00:26:13.956Z,5.00
2022-11-23T00:28:42.175Z,3.05
2022-11-23T00:31:11.540Z,5.03
2022-11-23T00:33:39.387Z,4.93
2022-11-23T00:36:10.646Z,3.95
2022-11-23T00:38:38.372Z,4.05
2022-11-23T00:41:08.902Z,5.15
2022-11-23T00:43:36.244Z,4.75
2022-11-23T00:46:27.143Z,3.75
2022-11-23T00:48:56.215Z,4.32
2022-11-23T00:51:30.462Z,4.88
2022-11-23T00:53:59.609Z,3.65
2022-11-23T00:56:27.909Z,4.60
2022-11-23T00:58:57.507Z,3.28
2022-11-23T01:01:29.141Z,4.22
2022-11-23T01:03:58.381Z,4.30
2022-11-23T01:06:28.415Z,4.72
2022-11-23T01:08:58.499Z,4.43
2022-11-23T01:11:28.212Z,4.68
2022-11-23T01:13:55.541Z,3.13
2022-11-23T01:16:28.723Z,4.07
2022-11-23T01:18:58.313Z,5.07
2022-11-23T01:21:27.552Z,5.15
2022-11-23T01:23:56.099Z,3.88
2022-11-23T01:26:23.916Z,3.85
2022-11-23T01:28:51.542Z,4.47
2022-11-23T01:31:24.110Z,4.10
2022-11-23T01:33:59.225Z,3.72
2022-11-23T01:36:28.962Z,4.07
2022-11-23T01:38:57.385Z,4.05
2022-11-23T01:41:28.011Z,3.97
2022-11-23T01:43:55.852Z,2.92
2022-11-23T01:46:23.480Z,3.58
2022-11-23T01:48:50.722Z,4.32
2022-11-23T01:51:39.384Z,3.78
2022-11-23T01:54:36.384Z,3.10
2022-11-23T01:57:17.792Z,3.15
2022-11-23T01:59:47.046Z,3.40
2022-11-23T02:02:16.518Z,5.40
2022-11-23T02:04:47.058Z,4.30
2022-11-23T02:07:16.168Z,3.28
2022-11-23T02:09:45.049Z,4.30
2022-11-23T02:12:13.730Z,5.03
2022-11-23T02:14:42.141Z,4.10
2022-11-23T02:17:09.705Z,4.40
2022-11-23T02:19:42.862Z,4.25
2022-11-23T02:22:36.297Z,6.65
2022-11-23T02:25:10.817Z,6.00
2022-11-23T02:27:40.504Z,6.10
2022-11-23T02:30:11.657Z,5.53
2022-11-23T02:32:39.111Z,6.22
2022-11-23T02:35:06.488Z,4.28
2022-11-23T02:37:33.886Z,4.57
2022-11-23T02:40:04.958Z,3.90
2022-11-23T02:42:32.823Z,4.45
2022-11-23T02:45:15.971Z,4.22
2022-11-23T02:50:27.853Z,3.35
2022-11-23T02:52:55.280Z,3.95
2022-11-23T02:55:22.622Z,5.25
2022-11-23T02:57:49.993Z,4.38
2022-11-23T03:00:18.228Z,4.97
2022-11-23T03:02:45.781Z,5.65
2022-11-23T03:05:13.048Z,6.55
2022-11-23T03:07:40.321Z,5.30
2022-11-23T03:10:08.273Z,6.10
2022-11-23T03:12:35.514Z,4.57
2022-11-23T03:15:03.390Z,5.20
2022-11-23T03:17:30.983Z,5.03
2022-11-23T03:19:58.313Z,4.82
2022-11-23T03:22:25.720Z,5.35
2022-11-23T03:24:52.990Z,3.45
2022-11-23T03:27:20.164Z,5.32
2022-11-23T03:29:47.379Z,5.10
2022-11-23T03:32:14.707Z,4.53
2022-11-23T03:34:41.913Z,4.07
2022-11-23T03:37:09.158Z,3.75
2022-11-23T03:39:36.375Z,5.10
2022-11-23T03:42:03.678Z,3.72
2022-11-23T03:44:30.890Z,5.55
2022-11-23T03:46:59.279Z,4.30
2022-11-23T03:49:26.561Z,4.43
2022-11-23T03:51:53.770Z,4.22
2022-11-23T03:54:21.039Z,4.07
2022-11-23T03:56:48.287Z,3.88
2022-11-23T03:59:15.479Z,4.40
2022-11-23T04:01:42.823Z,2.80
2022-11-23T04:04:10.125Z,3.95
2022-11-23T04:06:37.373Z,2.28
2022-11-23T04:09:04.641Z,2.45
2022-11-23T04:11:31.920Z,2.70
2022-11-23T04:13:59.162Z,2.30
2022-11-23T04:16:26.443Z,2.97
2022-11-23T04:18:53.760Z,3.53
2022-11-23T04:21:20.983Z,4.28
2022-11-23T04:23:48.302Z,2.35
2022-11-23T04:26:15.649Z,2.72
2022-11-23T04:28:43.034Z,3.25
2022-11-23T04:31:10.401Z,4.50
2022-11-23T04:33:37.651Z,3.35
2022-11-23T04:36:05.313Z,5.05
2022-11-23T04:38:32.591Z,3.08
2022-11-23T04:40:59.986Z,4.22
2022-11-23T04:43:27.318Z,3.47
2022-11-23T04:45:54.577Z,3.13
2022-11-23T04:48:21.859Z,3.97
2022-11-23T04:50:51.962Z,3.05
2022-11-23T04:53:22.693Z,3.97
2022-11-23T04:55:49.960Z,4.30
2022-11-23T04:58:17.198Z,3.83
2022-11-23T05:00:44.513Z,3.58
2022-11-23T05:03:11.815Z,2.97
2022-11-23T05:05:40.506Z,3.00
2022-11-23T05:08:08.195Z,2.35
2022-11-23T05:10:36.361Z,4.28
2022-11-23T05:13:04.037Z,4.57
2022-11-23T05:15:31.475Z,2.75
2022-11-23T05:18:10.550Z,3.88
2022-11-23T05:20:37.931Z,3.70
2022-11-23T05:23:05.291Z,3.05
2022-11-23T05:25:32.681Z,4.40
2022-11-23T05:28:07.448Z,4.15
2022-11-23T05:30:44.498Z,2.78
2022-11-23T05:33:12.013Z,4.50
2022-11-23T05:35:39.520Z,4.22
2022-11-23T05:38:06.980Z,3.83
2022-11-23T05:40:34.234Z,4.45
2022-11-23T05:43:01.509Z,3.72
2022-11-23T05:45:28.849Z,3.17
2022-11-23T05:47:58.308Z,2.58
2022-11-23T05:50:27.793Z,3.83
2022-11-23T05:52:57.540Z,3.78
2022-11-23T05:55:25.278Z,2.72
2022-11-23T05:57:53.119Z,3.80
2022-11-23T06:00:20.883Z,3.40
2022-11-23T06:02:48.205Z,3.25
2022-11-23T06:05:15.617Z,3.58
2022-11-23T06:07:42.933Z,4.22
2022-11-23T06:10:11.349Z,3.20
2022-11-23T06:12:38.653Z,5.47
2022-11-23T06:15:06.534Z,3.85
2022-11-23T06:17:33.957Z,3.05
2022-11-23T06:20:01.272Z,3.28
2022-11-23T06:22:28.566Z,2.85
2022-11-23T06:24:55.800Z,3.70
2022-11-23T06:27:23.021Z,3.60
2022-11-23T06:29:50.229Z,4.18
2022-11-23T06:32:17.527Z,3.78
2022-11-23T06:34:44.770Z,4.00
2022-11-23T06:37:12.201Z,3.30
2022-11-23T06:39:40.174Z,3.63
2022-11-23T06:42:31.445Z,2.70
2022-11-23T06:44:54.710Z,3.25
2022-11-23T06:47:26.045Z,3.97
2022-11-23T06:49:53.846Z,2.97
2022-11-23T06:52:21.299Z,2.78
2022-11-23T06:54:48.525Z,3.38
2022-11-23T06:57:15.918Z,2.20
2022-11-23T06:59:45.531Z,2.85
2022-11-23T07:02:13.272Z,3.28
2022-11-23T07:04:40.480Z,2.90
2022-11-23T07:07:10.873Z,4.30
2022-11-23T07:09:38.285Z,5.85
2022-11-23T07:12:05.771Z,4.18
2022-11-23T07:14:33.078Z,4.72
2022-11-23T07:17:00.367Z,5.95
2022-11-23T07:19:27.674Z,5.80
2022-11-23T07:21:54.904Z,6.22
2022-11-23T07:24:22.135Z,6.25
2022-11-23T07:26:50.207Z,6.45
2022-11-23T07:29:17.477Z,6.00
2022-11-23T07:31:44.748Z,9.55
2022-11-23T07:34:12.518Z,6.72
2022-11-23T07:36:40.082Z,6.18
2022-11-23T07:39:07.588Z,7.45
2022-11-23T07:41:34.826Z,9.48
2022-11-23T07:44:02.080Z,10.10
2022-11-23T07:46:29.298Z,6.82
2022-11-23T07:49:01.324Z,10.82
2022-11-23T07:51:29.562Z,7.07
2022-11-23T07:53:57.502Z,8.07
2022-11-23T07:56:25.430Z,9.80
2022-11-23T07:58:52.693Z,5.88
2022-11-23T08:01:20.683Z,9.10
2022-11-23T08:03:48.538Z,9.15
2022-11-23T08:06:16.646Z,7.72
2022-11-23T08:08:43.972Z,7.63
2022-11-23T08:11:14.633Z,7.43
2022-11-23T08:13:41.888Z,13.50
2022-11-23T08:16:09.574Z,6.60
2022-11-23T08:18:37.150Z,5.18
2022-11-23T08:21:04.940Z,5.28
2022-11-23T08:23:32.305Z,5.88
2022-11-23T08:26:02.243Z,7.53
2022-11-23T08:28:29.495Z,6.50
2022-11-23T08:30:56.700Z,6.43
2022-11-23T08:33:23.987Z,6.57
2022-11-23T08:35:51.261Z,7.05
2022-11-23T08:38:18.591Z,5.88
2022-11-23T08:40:45.833Z,5.85
2022-11-23T08:43:13.665Z,5.05
2022-11-23T08:45:40.946Z,5.82
2022-11-23T08:48:08.751Z,5.70
2022-11-23T08:50:37.148Z,5.28
2022-11-23T08:53:04.469Z,7.07
2022-11-23T08:55:31.729Z,4.85
2022-11-23T08:57:59.723Z,4.70
2022-11-23T09:00:28.000Z,4.45
2022-11-23T09:02:58.930Z,5.03
2022-11-23T09:05:27.391Z,4.93
2022-11-23T09:07:55.145Z,6.70
2022-11-23T09:10:22.414Z,3.42
2022-11-23T09:12:49.838Z,3.60
2022-11-23T09:15:17.911Z,5.30
2022-11-23T09:17:45.494Z,6.05
2022-11-23T09:20:13.395Z,5.45
2022-11-23T09:22:40.628Z,4.85
2022-11-23T09:25:08.860Z,5.93
2022-11-23T09:27:36.568Z,4.47
2022-11-23T09:30:04.872Z,5.43
2022-11-23T09:32:33.145Z,5.00
2022-11-23T09:35:00.410Z,5.95
2022-11-23T09:37:27.823Z,5.82
2022-11-23T09:39:55.180Z,4.55
2022-11-23T09:42:25.516Z,5.18
2022-11-23T09:45:49.113Z,4.07
2022-11-23T09:48:35.659Z,6.43
2022-11-23T09:51:08.881Z,3.65
2022-11-23T09:53:50.791Z,3.60
2022-11-23T09:56:30.466Z,7.25
2022-11-23T09:59:02.195Z,3.92
2022-11-23T10:01:30.797Z,4.38
2022-11-23T10:03:58.852Z,4.72
2022-11-23T10:06:31.659Z,4.45
2022-11-23T10:09:25.080Z,3.13
2022-11-23T10:12:02.567Z,3.92
2022-11-23T10:15:10.449Z,5.00
2022-11-23T10:17:50.978Z,4.78
2022-11-23T10:20:30.458Z,3.83
2022-11-23T10:23:02.538Z,4.68
2022-11-23T10:25:46.647Z,4.88
2022-11-23T10:28:16.933Z,5.17
2022-11-23T10:30:48.040Z,4.63
2022-11-23T10:33:32.399Z,5.18
2022-11-23T10:35:59.714Z,3.90
2022-11-23T10:38:28.304Z,4.90
2022-11-23T10:41:24.893Z,4.13
2022-11-23T10:44:04.019Z,4.18
2022-11-23T10:46:38.682Z,6.47
2022-11-23T10:52:09.712Z,19.33
2022-11-23T10:54:54.302Z,18.48
2022-11-23T10:57:44.843Z,9.52
2022-11-23T11:00:13.180Z,5.38
2022-11-23T11:02:45.718Z,4.50
2022-11-23T11:06:14.946Z,5.88
2022-11-23T11:08:23.843Z,5.07
2022-11-23T11:11:00.480Z,3.97
2022-11-23T11:13:33.345Z,3.92
2022-11-23T11:16:01.901Z,4.28
2022-11-23T11:18:34.937Z,3.72
2022-11-23T11:21:08.051Z,5.38
2022-11-23T11:23:41.160Z,3.78
2022-11-23T11:26:19.629Z,5.05
2022-11-23T11:28:56.682Z,4.53
2022-11-23T11:31:32.952Z,4.53
2022-11-23T11:34:22.017Z,4.80
2022-11-23T11:37:10.910Z,4.32
2022-11-23T11:40:08.878Z,3.42
2022-11-23T11:43:05.648Z,3.70
2022-11-23T11:45:38.642Z,5.20
2022-11-23T11:48:13.847Z,3.42
2022-11-23T11:51:08.742Z,3.63
2022-11-23T11:54:05.125Z,4.18
2022-11-23T11:56:37.511Z,3.03
2022-11-23T11:59:27.765Z,4.70
2022-11-23T12:02:14.771Z,4.72
2022-11-23T12:04:58.543Z,4.57
2022-11-23T12:07:31.850Z,3.13
2022-11-23T12:10:21.105Z,4.07
2022-11-23T12:12:48.597Z,4.00
2022-11-23T12:15:48.357Z,3.50
2022-11-23T12:18:36.818Z,3.78
2022-11-23T12:21:33.741Z,2.47
2022-11-23T12:24:11.434Z,4.03
2022-11-23T12:26:56.395Z,3.47
2022-11-23T12:32:31.839Z,2.45
2022-11-23T12:34:59.003Z,3.00
2022-11-23T12:37:40.073Z,4.90
2022-11-23T12:40:48.996Z,3.63
2022-11-23T12:43:43.188Z,2.42
2022-11-23T12:46:16.570Z,2.90
2022-11-23T12:48:50.786Z,3.67
2022-11-23T12:51:40.136Z,2.58
2022-11-23T12:54:53.616Z,2.78
2022-11-23T12:57:25.195Z,2.75
2022-11-23T13:00:07.173Z,2.20
2022-11-23T13:02:58.772Z,2.22
2022-11-23T13:06:03.354Z,2.67
2022-11-23T13:08:39.835Z,1.92
2022-11-23T13:11:09.895Z,2.22
2022-11-23T13:13:59.315Z,1.75
2022-11-23T13:16:34.276Z,1.90
2022-11-23T13:19:33.714Z,2.90
2022-11-23T13:22:04.872Z,2.05
2022-11-23T13:24:34.971Z,3.13
2022-11-23T13:27:14.831Z,2.22
2022-11-23T13:29:51.199Z,2.53
2022-11-23T13:32:42.287Z,3.53
2022-11-23T13:35:18.689Z,1.90
2022-11-23T13:37:58.053Z,3.75
2022-11-23T13:40:36.817Z,3.40
2022-11-23T13:43:19.097Z,2.17
2022-11-23T13:45:47.555Z,1.67
2022-11-23T13:48:48.903Z,2.70
2022-11-23T13:51:06.058Z,2.95
2022-11-23T13:53:37.221Z,1.58
2022-11-23T13:56:29.197Z,2.63
2022-11-23T13:58:59.002Z,1.58
2022-11-23T14:02:00.489Z,2.50
2022-11-23T14:04:33.428Z,2.22
2022-11-23T14:07:09.782Z,3.17
2022-11-23T14:09:45.485Z,2.83
2022-11-23T14:12:15.854Z,1.35
2022-11-23T14:14:54.160Z,2.35
2022-11-23T14:17:44.085Z,2.50
2022-11-23T14:20:24.929Z,1.45
2022-11-23T14:23:21.875Z,2.65
2022-11-23T14:26:33.609Z,2.50
2022-11-23T14:29:17.434Z,1.85
2022-11-23T14:31:55.349Z,1.00
2022-11-23T14:34:35.218Z,2.40
2022-11-23T14:37:17.381Z,2.33
2022-11-23T14:40:05.939Z,2.17
2022-11-23T14:42:45.670Z,1.50
2022-11-23T14:45:15.787Z,2.42
2022-11-23T14:47:43.110Z,2.10
2022-11-23T14:50:22.625Z,1.55
2022-11-23T14:52:52.929Z,2.17
2022-11-23T14:55:27.803Z,1.52
2022-11-23T14:57:59.552Z,1.35
2022-11-23T15:00:43.388Z,2.50
2022-11-23T15:06:17.868Z,1.40
2022-11-23T15:08:58.884Z,2.40
2022-11-23T15:11:29.250Z,1.42
2022-11-23T15:14:02.150Z,1.52
2022-11-23T15:16:29.680Z,1.67
2022-11-23T15:18:57.196Z,2.70
2022-11-23T15:21:27.900Z,1.27
2022-11-23T15:23:57.513Z,1.98
2022-11-23T15:26:47.309Z,1.75
2022-11-23T15:29:36.428Z,1.30
2022-11-23T15:32:30.382Z,2.75
2022-11-23T15:35:21.126Z,2.03
2022-11-23T15:37:50.056Z,0.73
2022-11-23T15:40:19.375Z,1.00
2022-11-23T15:42:50.046Z,1.50
2022-11-23T15:45:39.300Z,1.88
2022-11-23T15:48:28.447Z,1.02
2022-11-23T15:51:00.954Z,1.88
2022-11-23T15:53:34.156Z,5.05
2022-11-23T15:56:06.649Z,1.85
2022-11-23T15:58:35.394Z,2.10
2022-11-23T16:01:13.927Z,1.92
2022-11-23T16:04:02.527Z,1.77
2022-11-23T16:06:41.099Z,1.63
2022-11-23T16:09:50.657Z,1.65
2022-11-23T16:12:29.651Z,2.83
2022-11-23T16:15:18.452Z,2.85
2022-11-23T16:17:46.104Z,1.30
2022-11-23T16:20:16.004Z,3.13
2022-11-23T16:22:49.769Z,1.63
2022-11-23T16:25:25.896Z,2.03
2022-11-23T16:28:05.185Z,1.98
2022-11-23T16:30:41.089Z,1.80
2022-11-23T16:33:18.520Z,2.78
2022-11-23T16:35:46.976Z,2.20
2022-11-23T16:38:14.225Z,1.85
2022-11-23T16:40:45.484Z,2.58
2022-11-23T16:43:14.290Z,3.13
2022-11-23T16:45:52.561Z,1.90
2022-11-23T16:48:25.736Z,2.20
2022-11-23T16:50:54.434Z,1.92
2022-11-23T16:53:22.565Z,1.48
2022-11-23T16:55:54.247Z,2.60
2022-11-23T16:58:22.401Z,2.13
2022-11-23T17:00:50.214Z,2.42
2022-11-23T17:03:19.319Z,2.40
2022-11-23T17:05:47.370Z,2.17
2022-11-23T17:08:21.536Z,1.98
2022-11-23T17:10:51.641Z,2.65
2022-11-23T17:13:23.308Z,1.55
2022-11-23T17:15:51.615Z,1.92
2022-11-23T17:18:19.102Z,3.65
2022-11-23T17:20:46.417Z,1.75
2022-11-23T17:23:14.133Z,6.25
2022-11-23T17:25:41.803Z,5.75
2022-11-23T17:28:15.514Z,5.20
2022-11-23T17:30:42.907Z,1.97
2022-11-23T17:33:12.099Z,7.55
2022-11-23T17:35:40.193Z,2.88
2022-11-23T17:38:15.263Z,1.65
2022-11-23T17:40:42.978Z,2.17
2022-11-23T17:43:14.868Z,3.28
2022-11-23T17:45:43.869Z,2.42
2022-11-23T17:48:16.292Z,2.95
2022-11-23T17:50:43.597Z,4.03
2022-11-23T17:53:11.510Z,3.22
2022-11-23T17:55:39.480Z,4.30
2022-11-23T17:58:06.848Z,3.45
2022-11-23T18:00:34.669Z,3.90
2022-11-23T18:03:02.394Z,3.97
2022-11-23T18:05:30.007Z,1.98
2022-11-23T18:07:57.334Z,2.53
2022-11-23T18:10:25.040Z,3.35
2022-11-23T18:12:52.347Z,3.60
2022-11-23T18:15:19.637Z,3.35
2022-11-23T18:17:46.915Z,9.98
2022-11-23T18:20:15.544Z,7.63
2022-11-23T18:22:42.778Z,4.50
2022-11-23T18:25:10.254Z,4.72
2022-11-23T18:27:37.624Z,5.40
2022-11-23T18:30:05.840Z,3.97
2022-11-23T18:32:33.183Z,5.18
2022-11-23T18:35:00.520Z,5.78
2022-11-23T18:37:27.756Z,3.17
2022-11-23T18:39:55.092Z,5.47
2022-11-23T18:42:23.150Z,5.97
2022-11-23T18:44:50.417Z,3.50
2022-11-23T18:47:17.661Z,5.20
2022-11-23T18:49:44.940Z,5.15
2022-11-23T18:52:13.798Z,2.72
2022-11-23T18:54:41.069Z,7.28
2022-11-23T18:57:08.502Z,8.07
2022-11-23T18:59:56.980Z,4.10
2022-11-23T19:02:23.059Z,5.15
2022-11-23T19:04:50.542Z,5.43
2022-11-23T19:07:20.907Z,5.78
2022-11-23T19:12:19.680Z,4.78
2022-11-23T19:14:50.141Z,5.18
2022-11-23T19:17:17.781Z,9.43
2022-11-23T19:19:45.037Z,4.65
2022-11-23T19:22:14.975Z,5.32
2022-11-23T19:24:42.203Z,5.03
2022-11-23T19:27:09.804Z,10.07
2022-11-23T19:29:37.209Z,8.40
2022-11-23T19:32:04.888Z,7.72
2022-11-23T19:34:32.145Z,5.65
2022-11-23T19:36:59.389Z,10.30
2022-11-23T19:39:26.673Z,7.30
2022-11-23T19:41:53.893Z,8.40
2022-11-23T19:44:21.149Z,10.85
2022-11-23T19:46:48.415Z,11.23
2022-11-23T19:49:15.726Z,8.98
2022-11-23T19:51:42.959Z,9.90
2022-11-23T19:54:10.259Z,4.95
2022-11-23T19:56:37.688Z,5.57
2022-11-23T19:59:05.038Z,6.35
2022-11-23T20:01:32.968Z,7.10
2022-11-23T20:04:08.298Z,12.32
2022-11-23T20:06:38.380Z,8.35
2022-11-23T20:09:11.185Z,10.30
2022-11-23T20:11:40.299Z,11.13
2022-11-23T20:14:10.155Z,6.72
2022-11-23T20:16:38.328Z,8.48
2022-11-23T20:19:07.639Z,8.52
2022-11-23T20:21:36.771Z,8.15
2022-11-23T20:24:12.519Z,8.13
2022-11-23T20:26:40.960Z,7.65
2022-11-23T20:29:09.263Z,6.85
2022-11-23T20:31:37.308Z,6.45
2022-11-23T20:34:07.358Z,6.65
2022-11-23T20:36:37.622Z,7.90
2022-11-23T20:39:08.252Z,6.05
2022-11-23T20:41:37.936Z,6.97
2022-11-23T20:44:09.459Z,10.70
2022-11-23T20:49:24.076Z,6.80
2022-11-23T20:51:52.480Z,7.70
2022-11-23T20:54:19.807Z,5.95
2022-11-23T20:56:47.075Z,8.48
2022-11-23T20:59:14.571Z,10.02
2022-11-23T21:01:41.937Z,5.85
2022-11-23T21:04:09.387Z,9.57
2022-11-23T21:06:39.408Z,9.57
2022-11-23T21:09:08.972Z,13.73
2022-11-23T21:11:55.380Z,11.20
2022-11-23T21:14:27.391Z,7.57
2022-11-23T21:16:58.525Z,9.30
2022-11-23T21:22:28.823Z,7.90
2022-11-23T21:24:56.032Z,6.55
2022-11-23T21:27:28.117Z,7.20
2022-11-23T21:29:55.492Z,10.93
2022-11-23T21:32:22.782Z,9.98
2022-11-23T21:34:50.100Z,8.18
2022-11-23T21:37:17.337Z,8.40
2022-11-23T21:39:49.437Z,8.82
2022-11-23T21:42:19.809Z,7.00
2022-11-23T21:44:47.091Z,8.10
2022-11-23T21:47:14.423Z,7.40
2022-11-23T21:49:41.863Z,9.05
2022-11-23T21:52:09.245Z,9.43
2022-11-23T21:54:36.682Z,9.48
2022-11-23T21:57:04.578Z,8.23
2022-11-23T21:59:31.896Z,8.55
2022-11-23T22:02:00.351Z,7.88
2022-11-23T22:04:27.697Z,10.85
2022-11-23T22:06:54.956Z,10.65
2022-11-23T22:09:22.186Z,7.53
2022-11-23T22:11:49.455Z,8.32
2022-11-23T22:14:19.545Z,10.35
2022-11-23T22:16:49.888Z,9.68
2022-11-23T22:19:18.344Z,10.43
2022-11-23T22:21:46.692Z,7.95
2022-11-23T22:24:16.655Z,7.53
2022-11-23T22:26:45.349Z,9.68
2022-11-23T22:29:13.102Z,9.20
2022-11-23T22:31:41.096Z,8.05
2022-11-23T22:34:10.913Z,10.13
2022-11-23T22:36:38.438Z,9.68
2022-11-23T22:39:07.086Z,7.82
2022-11-23T22:41:36.787Z,7.97
2022-11-23T22:44:06.267Z,6.22
2022-11-23T22:46:33.921Z,8.02
2022-11-23T22:49:01.910Z,7.00
2022-11-23T22:51:29.675Z,7.53
2022-11-23T22:53:59.184Z,8.13
2022-11-23T22:56:28.658Z,6.47
2022-11-23T22:58:56.538Z,7.82
2022-11-23T23:01:29.274Z,5.32
2022-11-23T23:03:58.485Z,6.30
2022-11-23T23:06:33.582Z,5.85
2022-11-23T23:09:02.645Z,7.57
2022-11-23T23:11:32.040Z,5.40
2022-11-23T23:13:59.881Z,6.80
2022-11-23T23:16:28.666Z,4.72
2022-11-23T23:18:57.528Z,5.80
2022-11-23T23:21:26.159Z,5.07
2022-11-23T23:23:55.545Z,6.55
2022-11-23T23:26:25.145Z,5.85
2022-11-23T23:28:57.030Z,4.93
2022-11-23T23:31:25.388Z,5.10
2022-11-23T23:33:53.695Z,6.00
2022-11-23T23:36:22.317Z,4.05
2022-11-23T23:38:50.822Z,5.82
2022-11-23T23:41:18.265Z,3.72
2022-11-23T23:43:47.902Z,4.90
2022-11-23T23:46:15.809Z,5.70
2022-11-23T23:48:43.159Z,4.18
2022-11-23T23:51:16.462Z,4.57
2022-11-23T23:53:44.685Z,4.38
2022-11-23T23:56:18.525Z,5.15
2022-11-23T23:58:46.399Z,3.60
